Time;durP1;ratioP1;P1;durP2;ratioP2;P2;SDS_P1;SDS_P2;PMS_P1;PMS_P2;Temp;Humidity;BMP_temperature;BMP_pressure;BME280_temperature;BME280_humidity;BME280_pressure;Samples;Min_cycle;Max_cycle;Signal;HPM_P1;HPM_P2
2022/12/12 00:00:12;;;;;;;51.50;28.33;;;0.60;99.90;;;;;;4994346;28;20035;-51
2022/12/12 00:02:39;;;;;;;51.30;27.42;;;0.50;99.90;;;;;;4993693;28;20105;-51
2022/12/12 00:05:06;;;;;;;57.65;29.30;;;0.50;99.90;;;;;;4994366;28;20498;-53
2022/12/12 00:07:32;;;;;;;56.88;30.42;;;0.50;99.90;;;;;;4994408;28;20045;-49
2022/12/12 00:09:57;;;;;;;55.10;29.17;;;0.40;99.90;;;;;;4994308;28;20026;-48
2022/12/12 00:12:23;;;;;;;61.75;32.47;;;0.50;99.90;;;;;;4993603;28;20026;-52
2022/12/12 00:14:48;;;;;;;57.13;30.02;;;0.50;99.90;;;;;;4994366;28;20031;-50
2022/12/12 00:17:14;;;;;;;59.92;29.40;;;0.50;99.90;;;;;;4994134;28;20030;-49
2022/12/12 00:19:42;;;;;;;61.58;30.40;;;0.50;99.90;;;;;;4994033;28;20081;-48
2022/12/12 00:22:07;;;;;;;58.95;30.45;;;0.50;99.90;;;;;;5012733;23;20038;-53
2022/12/12 00:24:33;;;;;;;56.08;29.88;;;0.60;99.90;;;;;;5008962;28;20105;-54
2022/12/12 00:26:58;;;;;;;57.45;28.50;;;0.60;99.90;;;;;;4993915;28;20065;-53
2022/12/12 00:29:24;;;;;;;90.05;44.88;;;0.60;99.90;;;;;;4993832;28;20089;-53
2022/12/12 00:31:50;;;;;;;67.88;35.60;;;0.70;99.90;;;;;;5008527;28;20069;-51
2022/12/12 00:34:15;;;;;;;57.97;31.85;;;0.70;99.90;;;;;;4993402;28;20435;-54
2022/12/12 00:36:41;;;;;;;56.20;28.50;;;0.70;99.90;;;;;;4993527;28;20064;-53
2022/12/12 00:39:07;;;;;;;50.60;27.98;;;0.80;99.90;;;;;;5007895;28;20522;-51
2022/12/12 00:41:32;;;;;;;56.67;29.17;;;0.90;99.90;;;;;;4993660;28;20033;-51
2022/12/12 00:43:58;;;;;;;52.72;27.23;;;0.90;99.90;;;;;;4992608;28;20516;-50
2022/12/12 00:46:24;;;;;;;55.45;27.98;;;0.80;99.90;;;;;;4993592;28;20026;-49
2022/12/12 00:48:53;;;;;;;55.63;30.25;;;0.80;99.90;;;;;;4993917;28;20033;-55
2022/12/12 00:51:21;;;;;;;59.80;30.45;;;0.70;99.90;;;;;;4993492;28;20022;-51
2022/12/12 00:53:49;;;;;;;57.35;29.27;;;0.70;99.90;;;;;;4992849;28;20030;-46
2022/12/12 00:56:16;;;;;;;53.33;29.73;;;0.70;99.90;;;;;;4993323;28;20022;-51
2022/12/12 00:58:42;;;;;;;61.58;30.33;;;0.70;99.90;;;;;;4991678;28;20510;-52
2022/12/12 01:01:11;;;;;;;56.60;28.85;;;0.60;99.90;;;;;;5008342;28;20121;-50
2022/12/12 01:03:39;;;;;;;56.45;30.08;;;0.70;99.90;;;;;;4992874;28;20138;-54
2022/12/12 01:06:05;;;;;;;56.15;28.65;;;0.70;99.90;;;;;;4993383;28;20493;-50
2022/12/12 01:08:30;;;;;;;54.20;28.30;;;0.70;99.90;;;;;;4993321;28;20029;-50
2022/12/12 01:10:56;;;;;;;55.95;28.05;;;0.70;99.90;;;;;;4993236;28;20410;-45
2022/12/12 01:13:22;;;;;;;57.25;28.17;;;0.70;99.90;;;;;;4992382;28;20037;-50
2022/12/12 01:15:47;;;;;;;56.10;27.58;;;0.70;99.90;;;;;;5008078;28;20026;-51
2022/12/12 01:18:13;;;;;;;50.47;28.27;;;0.70;99.90;;;;;;4993295;28;20399;-51
2022/12/12 01:20:40;;;;;;;58.53;29.70;;;0.70;99.90;;;;;;4992713;28;20517;-53
2022/12/12 01:23:05;;;;;;;52.40;28.38;;;0.80;99.90;;;;;;4992057;28;20031;-46
2022/12/12 01:25:31;;;;;;;57.38;28.13;;;0.80;99.90;;;;;;4991391;28;20030;-52
2022/12/12 01:27:57;;;;;;;54.00;29.48;;;0.80;99.90;;;;;;4992472;28;20022;-53
2022/12/12 01:30:23;;;;;;;50.40;26.95;;;0.80;99.90;;;;;;4993043;28;20027;-48
2022/12/12 01:32:48;;;;;;;50.50;27.60;;;0.80;99.90;;;;;;4991890;28;20446;-49
2022/12/12 01:35:14;;;;;;;54.95;27.45;;;0.80;99.90;;;;;;4992662;28;20050;-54
2022/12/12 01:37:40;;;;;;;54.80;26.92;;;0.80;99.90;;;;;;4992520;28;20499;-52
2022/12/12 01:40:08;;;;;;;56.65;27.75;;;0.90;99.90;;;;;;4992629;28;20034;-55
2022/12/12 01:42:34;;;;;;;55.03;27.50;;;0.90;99.90;;;;;;4991443;28;20045;-53
2022/12/12 01:45:00;;;;;;;50.17;27.85;;;0.80;99.90;;;;;;4992330;28;20034;-49
2022/12/12 01:47:26;;;;;;;51.95;27.42;;;0.70;99.90;;;;;;5007562;28;20025;-51
2022/12/12 01:49:58;;;;;;;61.58;28.35;;;0.70;99.90;;;;;;4992072;28;20027;-52
2022/12/12 01:52:33;;;;;;;54.63;27.52;;;0.70;99.90;;;;;;4991608;28;20023;-50
2022/12/12 01:55:01;;;;;;;52.95;27.35;;;0.70;99.90;;;;;;5007366;28;20038;-48
2022/12/12 01:57:36;;;;;;;55.17;28.95;;;0.80;99.90;;;;;;4990539;28;20042;-45
2022/12/12 02:00:05;;;;;;;54.00;28.38;;;0.80;99.90;;;;;;4992436;28;20396;-53
2022/12/12 02:02:31;;;;;;;50.90;27.38;;;0.80;99.90;;;;;;4991376;28;20195;-52
2022/12/12 02:05:01;;;;;;;51.78;26.95;;;0.70;99.90;;;;;;4991996;28;20033;-45
2022/12/12 02:07:27;;;;;;;60.03;29.60;;;0.70;99.90;;;;;;4992118;28;20491;-51
2022/12/12 02:09:52;;;;;;;54.92;27.88;;;0.70;99.90;;;;;;4992507;28;20050;-53
2022/12/12 02:12:18;;;;;;;58.08;27.90;;;0.70;99.90;;;;;;5006934;28;20398;-54
2022/12/12 02:14:50;;;;;;;56.50;27.98;;;0.70;99.90;;;;;;4992369;28;20076;-51
2022/12/12 02:17:36;;;;;;;51.05;27.38;;;0.70;99.90;;;;;;4992379;28;20394;-49
2022/12/12 02:20:33;;;;;;;57.15;28.42;;;0.70;99.90;;;;;;4992196;28;20062;-49
2022/12/12 02:23:29;;;;;;;54.42;25.65;;;0.70;99.90;;;;;;4991845;28;20520;-50
2022/12/12 02:26:33;;;;;;;45.65;24.95;;;0.80;99.90;;;;;;4992884;28;20030;-52
2022/12/12 02:29:18;;;;;;;49.53;26.00;;;0.80;99.90;;;;;;4991576;28;20038;-50
2022/12/12 02:32:18;;;;;;;50.65;26.20;;;0.90;99.90;;;;;;4992547;28;20029;-50
2022/12/12 02:35:03;;;;;;;49.05;25.90;;;1.00;99.90;;;;;;4961902;28;20042;-53
2022/12/12 02:37:38;;;;;;;49.67;24.13;;;1.00;99.90;;;;;;4991963;28;20026;-45
2022/12/12 02:40:29;;;;;;;49.17;24.85;;;1.00;99.90;;;;;;4992181;28;20065;-56
2022/12/12 02:43:01;;;;;;;47.88;25.77;;;0.90;99.90;;;;;;4991229;28;20503;-51
2022/12/12 02:46:04;;;;;;;46.08;24.60;;;1.00;99.90;;;;;;4992154;28;20513;-54
2022/12/12 02:48:33;;;;;;;49.72;26.80;;;1.00;99.90;;;;;;4991394;28;20077;-56
2022/12/12 02:51:03;;;;;;;47.17;24.67;;;1.10;99.90;;;;;;4991869;28;20109;-49
2022/12/12 03:10:32;;;;;;;48.13;25.25;;;0.90;99.90;;;;;;4995368;28;20038;-57
2022/12/12 03:13:10;;;;;;;41.35;22.23;;;0.90;99.90;;;;;;4994570;28;20537;-46
2022/12/12 03:15:43;;;;;;;51.88;25.40;;;0.80;99.90;;;;;;4995299;28;20026;-54
2022/12/12 03:18:48;;;;;;;50.58;25.58;;;0.80;99.90;;;;;;5010285;28;20080;-52
2022/12/12 03:21:25;;;;;;;46.05;24.10;;;0.80;99.90;;;;;;4955769;28;20046;-46
2022/12/12 03:23:56;;;;;;;44.90;25.50;;;0.70;99.90;;;;;;4994426;28;20417;-48
2022/12/12 03:26:25;;;;;;;44.72;25.02;;;0.70;99.90;;;;;;4995386;28;20038;-50
2022/12/12 03:29:15;;;;;;;42.53;24.33;;;0.60;99.90;;;;;;4995247;28;20465;-49
2022/12/12 03:31:45;;;;;;;35.30;21.05;;;0.60;99.90;;;;;;4995100;28;20026;-49
2022/12/12 03:34:25;;;;;;;42.80;23.20;;;0.60;99.90;;;;;;4994430;28;20031;-52
2022/12/12 03:36:55;;;;;;;45.72;22.80;;;0.50;99.90;;;;;;4995344;28;20022;-51
2022/12/12 03:39:31;;;;;;;39.10;22.85;;;0.50;99.90;;;;;;4995001;28;20029;-49
2022/12/12 03:42:07;;;;;;;45.13;23.40;;;0.50;99.90;;;;;;5009389;28;20126;-51
2022/12/12 03:45:00;;;;;;;39.20;22.42;;;0.50;99.90;;;;;;5009759;28;20530;-53
2022/12/12 03:47:34;;;;;;;40.45;23.05;;;0.60;99.90;;;;;;4994692;28;20027;-53
2022/12/12 03:50:08;;;;;;;40.53;21.00;;;0.70;99.90;;;;;;4994823;28;20022;-51
2022/12/12 03:53:06;;;;;;;34.15;20.08;;;0.70;99.90;;;;;;4993810;28;20037;-54
2022/12/12 03:55:43;;;;;;;42.40;21.13;;;0.70;99.90;;;;;;4990380;28;20042;-52
2022/12/12 03:58:28;;;;;;;40.08;22.38;;;0.70;99.90;;;;;;4992823;28;20553;-51
2022/12/12 04:01:00;;;;;;;38.90;20.52;;;0.70;99.90;;;;;;4994387;28;20027;-49
2022/12/12 04:03:34;;;;;;;36.75;20.30;;;0.70;99.90;;;;;;4993940;28;20566;-53
2022/12/12 04:06:25;;;;;;;37.17;20.88;;;0.70;99.90;;;;;;4994266;28;20046;-53
2022/12/12 04:15:02;;;;;;;37.08;20.42;;;0.70;99.90;;;;;;4994152;28;20045;-54
2022/12/12 04:17:53;;;;;;;39.83;21.13;;;0.70;99.90;;;;;;4992713;28;20474;-50
2022/12/12 04:23:34;;;;;;;41.88;21.75;;;0.80;99.90;;;;;;4993180;28;20414;-51
2022/12/12 04:26:41;;;;;;;33.63;19.13;;;0.90;99.90;;;;;;4993779;28;20058;-49
2022/12/12 04:29:18;;;;;;;38.38;20.45;;;0.90;99.90;;;;;;4971772;28;20037;-52
2022/12/12 04:32:11;;;;;;;37.15;20.60;;;1.00;99.90;;;;;;4993714;28;20509;-48
2022/12/12 04:34:46;;;;;;;39.80;20.10;;;1.00;99.90;;;;;;4993902;28;20030;-52
2022/12/12 04:37:24;;;;;;;39.38;20.02;;;0.90;99.90;;;;;;4993722;28;20033;-50
2022/12/12 04:39:53;;;;;;;36.58;20.77;;;1.00;99.90;;;;;;4993785;28;20084;-49
2022/12/12 04:42:22;;;;;;;35.30;20.95;;;1.00;99.90;;;;;;4992847;28;20406;-53
2022/12/12 04:44:51;;;;;;;38.88;21.10;;;1.10;99.90;;;;;;4993460;28;20030;-51
2022/12/12 04:47:18;;;;;;;35.15;20.92;;;1.10;99.90;;;;;;4993725;28;20030;-51
2022/12/12 04:49:46;;;;;;;33.75;19.88;;;1.10;99.90;;;;;;4993909;28;20033;-52
2022/12/12 04:52:17;;;;;;;37.70;20.85;;;1.20;99.90;;;;;;5008465;28;20033;-52
2022/12/12 04:54:45;;;;;;;36.38;18.67;;;1.30;99.90;;;;;;4994156;28;20433;-53
2022/12/12 04:57:16;;;;;;;41.10;20.50;;;1.30;99.90;;;;;;4992648;28;20030;-50
2022/12/12 04:59:41;;;;;;;43.95;21.42;;;1.30;99.90;;;;;;5009530;28;20026;-47
2022/12/12 05:02:15;;;;;;;39.08;21.20;;;1.30;99.90;;;;;;4993871;28;20037;-50
2022/12/12 05:04:56;;;;;;;38.55;20.63;;;1.30;99.90;;;;;;4993555;28;20026;-53
2022/12/12 05:07:39;;;;;;;36.65;20.13;;;1.30;99.90;;;;;;4993445;28;20026;-49
2022/12/12 05:10:09;;;;;;;35.13;20.15;;;1.40;99.90;;;;;;4993952;28;20368;-50
2022/12/12 05:12:41;;;;;;;36.53;20.90;;;1.40;99.90;;;;;;4992777;28;20023;-48
2022/12/12 05:15:08;;;;;;;38.53;20.60;;;1.50;99.90;;;;;;4993953;28;20022;-53
2022/12/12 05:17:46;;;;;;;38.50;21.88;;;1.40;99.90;;;;;;4993138;28;20030;-49
2022/12/12 05:20:14;;;;;;;37.05;20.92;;;1.40;99.90;;;;;;4993455;28;20494;-48
2022/12/12 05:22:39;;;;;;;35.35;21.30;;;1.50;99.90;;;;;;4992501;28;20116;-52
2022/12/12 05:25:05;;;;;;;38.28;20.73;;;1.50;99.90;;;;;;4992925;28;20134;-48
2022/12/12 05:27:31;;;;;;;38.20;20.50;;;1.50;99.90;;;;;;4993008;28;20027;-51
2022/12/12 05:29:57;;;;;;;31.48;20.08;;;1.40;99.90;;;;;;4992618;28;20541;-52
2022/12/12 05:32:22;;;;;;;41.17;21.70;;;1.40;99.90;;;;;;4991924;28;20031;-51
2022/12/12 05:34:48;;;;;;;31.73;19.08;;;1.30;99.90;;;;;;4992621;28;20565;-53
2022/12/12 05:37:13;;;;;;;47.30;22.10;;;1.30;99.90;;;;;;5007524;28;20394;-50
2022/12/12 05:39:39;;;;;;;36.03;20.15;;;1.30;99.90;;;;;;4992715;28;20087;-49
2022/12/12 05:42:04;;;;;;;43.03;21.48;;;1.30;99.90;;;;;;4991739;28;20040;-48
2022/12/12 05:44:30;;;;;;;36.58;20.95;;;1.20;99.90;;;;;;5007446;28;20141;-51
2022/12/12 05:46:55;;;;;;;37.40;21.75;;;1.20;99.90;;;;;;4992527;28;20033;-52
2022/12/12 05:49:21;;;;;;;38.60;22.40;;;1.20;99.90;;;;;;4992423;28;20058;-53
2022/12/12 05:51:46;;;;;;;43.83;21.30;;;1.10;99.90;;;;;;4992196;28;20030;-49
2022/12/12 05:54:12;;;;;;;40.00;21.75;;;1.20;99.90;;;;;;4991897;28;20030;-45
2022/12/12 05:56:38;;;;;;;35.58;20.40;;;1.10;99.90;;;;;;4991331;28;20069;-53
2022/12/12 05:59:03;;;;;;;39.58;21.65;;;1.00;99.90;;;;;;4992229;28;20462;-50
2022/12/12 06:01:29;;;;;;;40.25;22.58;;;1.00;99.90;;;;;;4992138;28;20105;-52
2022/12/12 06:03:55;;;;;;;41.40;22.65;;;1.00;99.90;;;;;;4991536;28;20102;-54
2022/12/12 06:06:20;;;;;;;43.72;23.88;;;0.90;99.90;;;;;;4992054;28;20051;-49
2022/12/12 06:08:46;;;;;;;40.13;22.88;;;0.90;99.90;;;;;;4992357;28;20401;-52
2022/12/12 06:11:11;;;;;;;38.83;22.02;;;0.90;99.90;;;;;;5007070;28;20033;-56
2022/12/12 06:13:37;;;;;;;43.88;24.77;;;0.90;99.90;;;;;;4991401;28;20038;-50
2022/12/12 06:16:07;;;;;;;40.80;22.88;;;0.80;99.90;;;;;;4992167;28;20026;-45
2022/12/12 06:18:33;;;;;;;44.38;23.95;;;0.80;99.90;;;;;;4992555;28;20027;-52
2022/12/12 06:23:40;;;;;;;42.83;23.63;;;0.80;99.90;;;;;;4948773;29;20098;-55
2022/12/12 06:26:07;;;;;;;45.42;25.45;;;0.80;99.90;;;;;;4953131;28;20089;-50
2022/12/12 06:28:33;;;;;;;50.63;24.90;;;0.80;99.90;;;;;;4968099;28;20114;-51
2022/12/12 06:30:59;;;;;;;50.10;25.02;;;0.80;99.90;;;;;;4953251;28;20086;-52
2022/12/12 06:33:26;;;;;;;41.13;24.77;;;0.80;99.90;;;;;;4952505;28;20030;-49
2022/12/12 06:35:59;;;;;;;47.22;26.15;;;0.80;99.90;;;;;;4955290;28;20020;-52
2022/12/12 06:38:25;;;;;;;45.78;23.83;;;0.70;99.90;;;;;;4956898;28;20046;-49
2022/12/12 06:40:50;;;;;;;46.97;25.58;;;0.70;99.90;;;;;;4957047;28;20127;-47
2022/12/12 06:43:15;;;;;;;49.53;26.17;;;0.60;99.90;;;;;;4955462;28;20023;-49
2022/12/12 06:45:41;;;;;;;50.13;28.10;;;0.60;99.90;;;;;;4971627;28;20050;-48
2022/12/12 06:48:06;;;;;;;50.67;27.30;;;0.60;99.90;;;;;;4956884;28;20391;-52
2022/12/12 06:50:32;;;;;;;46.42;24.98;;;0.60;99.90;;;;;;4956975;28;20031;-48
2022/12/12 06:52:58;;;;;;;50.05;27.85;;;0.70;99.90;;;;;;4956086;28;20035;-49
2022/12/12 06:55:23;;;;;;;52.97;28.17;;;0.70;99.90;;;;;;4971586;28;20418;-51
2022/12/12 06:57:49;;;;;;;52.53;28.48;;;0.70;99.90;;;;;;4970443;28;20062;-47
2022/12/12 07:00:15;;;;;;;52.08;28.30;;;0.70;99.90;;;;;;4956632;28;20113;-52
2022/12/12 07:02:40;;;;;;;50.97;26.48;;;0.70;99.90;;;;;;4955895;28;20038;-48
2022/12/12 07:05:06;;;;;;;53.55;27.73;;;0.70;99.90;;;;;;4956259;28;20028;-49
2022/12/12 07:07:33;;;;;;;45.13;27.77;;;0.80;99.90;;;;;;4956569;28;20031;-51
2022/12/12 07:09:58;;;;;;;45.10;26.17;;;0.80;99.90;;;;;;4956786;28;20102;-49
2022/12/12 07:12:24;;;;;;;50.35;25.13;;;0.80;99.90;;;;;;4956353;28;20062;-53
2022/12/12 07:14:50;;;;;;;53.20;27.98;;;0.80;99.90;;;;;;4956452;28;20041;-47
2022/12/12 07:17:15;;;;;;;50.72;27.60;;;0.80;99.90;;;;;;4956189;28;20035;-48
2022/12/12 07:19:41;;;;;;;55.03;27.67;;;0.90;99.90;;;;;;4956156;28;20023;-49
2022/12/12 07:22:06;;;;;;;46.47;24.40;;;0.90;99.90;;;;;;4956318;28;20466;-50
2022/12/12 07:24:32;;;;;;;49.60;25.48;;;0.80;99.90;;;;;;4956129;28;20027;-48
2022/12/12 07:26:57;;;;;;;56.70;30.13;;;0.80;99.90;;;;;;4956109;28;20019;-52
2022/12/12 07:29:23;;;;;;;56.22;28.50;;;0.70;99.90;;;;;;4956238;28;20024;-51
2022/12/12 07:31:48;;;;;;;51.42;26.10;;;0.60;99.90;;;;;;4955958;28;20396;-53
2022/12/12 07:34:14;;;;;;;45.05;25.50;;;0.60;99.90;;;;;;4955423;28;20492;-50
2022/12/12 07:36:39;;;;;;;47.33;25.65;;;0.60;99.90;;;;;;4955999;28;20038;-51
2022/12/12 07:39:05;;;;;;;47.03;27.00;;;0.60;99.90;;;;;;4955980;28;20038;-50
2022/12/12 07:41:30;;;;;;;47.40;25.67;;;0.60;99.90;;;;;;4955851;28;20502;-53
2022/12/12 07:43:56;;;;;;;52.63;27.48;;;0.50;99.90;;;;;;4955244;28;20117;-52
2022/12/12 07:46:24;;;;;;;49.15;26.98;;;0.50;99.90;;;;;;4955770;28;20023;-53
2022/12/12 07:48:50;;;;;;;50.00;26.98;;;0.50;99.90;;;;;;4955288;28;20023;-49
2022/12/12 07:51:16;;;;;;;48.58;26.48;;;0.40;99.90;;;;;;4970659;28;20103;-50
2022/12/12 07:53:42;;;;;;;53.15;26.13;;;0.40;99.90;;;;;;4955125;28;20547;-52
2022/12/12 07:56:10;;;;;;;50.00;26.88;;;0.40;99.90;;;;;;4956288;28;20054;-50
2022/12/12 07:58:36;;;;;;;50.80;26.60;;;0.40;99.90;;;;;;4970988;28;20031;-48
2022/12/12 08:01:13;;;;;;;49.08;26.90;;;0.30;99.90;;;;;;4955771;28;20023;-51
2022/12/12 08:03:39;;;;;;;51.35;25.70;;;0.40;99.90;;;;;;4954906;29;20338;-52
2022/12/12 08:06:06;;;;;;;47.30;25.75;;;0.50;99.90;;;;;;4955585;29;20032;-49
2022/12/12 08:08:31;;;;;;;44.75;26.00;;;0.60;99.90;;;;;;4955530;29;20019;-55
2022/12/12 08:10:57;;;;;;;48.75;26.38;;;0.60;99.90;;;;;;4955483;28;20023;-50
2022/12/12 08:13:23;;;;;;;46.47;24.67;;;0.60;99.90;;;;;;4954744;29;20051;-52
2022/12/12 08:15:48;;;;;;;49.13;26.23;;;0.60;99.90;;;;;;4955382;28;20027;-50
2022/12/12 08:18:14;;;;;;;51.33;26.95;;;0.60;99.90;;;;;;4955371;29;20035;-50
2022/12/12 08:20:39;;;;;;;48.88;26.63;;;0.60;99.90;;;;;;4955653;28;20028;-48
2022/12/12 08:23:05;;;;;;;49.33;25.48;;;0.60;99.90;;;;;;4954392;28;20038;-51
2022/12/12 08:25:32;;;;;;;48.75;25.65;;;0.70;99.90;;;;;;4955291;29;20027;-51
2022/12/12 08:27:57;;;;;;;49.50;23.45;;;0.80;99.90;;;;;;4955662;29;20027;-48
2022/12/12 08:30:23;;;;;;;44.40;24.80;;;0.80;99.90;;;;;;4955693;28;20034;-46
2022/12/12 08:32:48;;;;;;;48.05;25.70;;;0.90;99.90;;;;;;4954640;28;20027;-47
2022/12/12 08:35:14;;;;;;;47.53;25.15;;;0.90;99.90;;;;;;4955471;29;20031;-45
2022/12/12 08:37:40;;;;;;;48.10;25.13;;;0.90;99.90;;;;;;4955077;28;20031;-46
2022/12/12 08:40:06;;;;;;;40.30;22.10;;;0.90;99.90;;;;;;4954922;28;20031;-45
2022/12/12 08:42:31;;;;;;;51.17;24.63;;;0.90;99.90;;;;;;4954067;28;20032;-49
2022/12/12 08:44:57;;;;;;;43.15;23.20;;;0.90;99.90;;;;;;4954482;28;20483;-47
2022/12/12 08:47:22;;;;;;;73.00;42.08;;;1.10;99.90;;;;;;4954502;29;20035;-47
2022/12/12 08:49:49;;;;;;;44.20;25.58;;;1.40;99.90;;;;;;4954730;28;20038;-45
2022/12/12 08:52:14;;;;;;;49.78;26.38;;;1.80;99.90;;;;;;4954003;28;20086;-45
2022/12/12 08:54:40;;;;;;;36.78;20.80;;;2.40;99.90;;;;;;4954622;29;20175;-52
2022/12/12 08:57:05;;;;;;;39.03;21.27;;;2.80;99.90;;;;;;4954404;29;20106;-46
2022/12/12 08:59:31;;;;;;;38.03;20.77;;;3.20;99.90;;;;;;4953658;28;20027;-46
2022/12/12 09:01:56;;;;;;;39.22;21.60;;;3.40;99.90;;;;;;4968542;28;20436;-47
2022/12/12 09:04:22;;;;;;;32.60;20.65;;;3.40;99.90;;;;;;4954303;29;20054;-48
2022/12/12 09:06:48;;;;;;;33.70;19.55;;;3.30;99.90;;;;;;4969409;28;20015;-46
2022/12/12 09:09:13;;;;;;;34.58;20.73;;;3.10;99.90;;;;;;4969355;28;20075;-47
2022/12/12 09:11:39;;;;;;;34.95;21.05;;;2.90;99.90;;;;;;4954373;28;20046;-47
2022/12/12 09:14:04;;;;;;;33.72;18.45;;;2.90;99.90;;;;;;4968436;28;20027;-45
2022/12/12 09:16:30;;;;;;;31.92;18.98;;;3.10;99.90;;;;;;4954026;28;20483;-47
2022/12/12 09:18:55;;;;;;;37.33;21.35;;;3.20;99.90;;;;;;4954081;28;20020;-44
2022/12/12 09:21:27;;;;;;;38.42;21.20;;;3.20;99.90;;;;;;5129721;27;20383;-47
2022/12/12 09:23:53;;;;;;;38.13;20.52;;;2.90;99.90;;;;;;5129173;27;20020;-44
2022/12/12 09:26:18;;;;;;;36.83;20.80;;;2.80;99.90;;;;;;5129883;27;20024;-46
2022/12/12 09:28:44;;;;;;;35.08;19.92;;;2.90;99.90;;;;;;5129896;27;20054;-50
2022/12/12 09:31:11;;;;;;;34.08;20.33;;;3.20;99.90;;;;;;5128436;27;20023;-47
2022/12/12 09:33:37;;;;;;;33.20;18.88;;;3.40;99.90;;;;;;5128867;27;20470;-46
2022/12/12 09:36:06;;;;;;;31.08;18.35;;;3.70;99.90;;;;;;5130183;27;20038;-46
2022/12/12 09:38:31;;;;;;;34.03;19.92;;;3.90;99.90;;;;;;5129700;27;20402;-46
2022/12/12 09:41:08;;;;;;;32.67;19.70;;;4.40;99.90;;;;;;5128719;27;20024;-52
2022/12/12 09:44:08;;;;;;;32.70;18.73;;;4.70;99.90;;;;;;5128993;27;20114;-48
2022/12/12 09:46:47;;;;;;;28.98;17.65;;;4.70;99.90;;;;;;5129483;27;20023;-45
2022/12/12 09:49:45;;;;;;;29.75;18.38;;;4.30;99.90;;;;;;5129634;27;20080;-45
2022/12/12 09:52:14;;;;;;;32.97;18.45;;;4.20;99.90;;;;;;5128707;27;20422;-51
2022/12/12 09:54:40;;;;;;;32.90;19.50;;;4.00;99.90;;;;;;5129443;27;20028;-45
2022/12/12 09:57:27;;;;;;;30.15;17.90;;;3.90;99.90;;;;;;5129389;27;20073;-44
2022/12/12 09:59:58;;;;;;;30.92;17.60;;;4.10;99.90;;;;;;5129148;27;20028;-45
2022/12/12 10:02:38;;;;;;;34.70;18.80;;;4.00;99.90;;;;;;5128342;27;20635;-46
2022/12/12 10:05:19;;;;;;;29.48;18.02;;;4.00;99.90;;;;;;5127790;28;20026;-48
2022/12/12 10:08:06;;;;;;;34.38;18.60;;;4.10;99.90;;;;;;5129594;27;20102;-48
2022/12/12 10:10:33;;;;;;;30.27;16.70;;;4.00;99.90;;;;;;5129547;28;20061;-47
2022/12/12 10:13:01;;;;;;;32.85;17.90;;;3.90;99.90;;;;;;5127552;27;20047;-49
2022/12/12 10:15:43;;;;;;;32.42;17.73;;;3.80;99.90;;;;;;5127549;28;20038;-47
2022/12/12 10:18:19;;;;;;;34.40;17.63;;;3.60;99.90;;;;;;5123156;27;20031;-48
2022/12/12 10:20:50;;;;;;;33.05;19.83;;;3.40;99.90;;;;;;5127408;28;20034;-48
2022/12/12 10:23:45;;;;;;;31.00;17.33;;;3.20;99.90;;;;;;5128102;27;20034;-45
2022/12/12 10:26:24;;;;;;;27.42;16.33;;;3.30;99.90;;;;;;5127015;28;20117;-47
2022/12/12 10:28:57;;;;;;;30.95;18.60;;;3.10;99.90;;;;;;5128375;27;20055;-45
2022/12/12 10:31:39;;;;;;;29.33;18.75;;;3.00;99.90;;;;;;5123040;27;20074;-49
2022/12/12 10:34:42;;;;;;;33.17;18.67;;;3.00;99.90;;;;;;5114056;28;20072;-49
2022/12/12 10:37:30;;;;;;;33.17;18.67;;;3.10;99.90;;;;;;5093698;28;20145;-48
2022/12/12 10:40:16;;;;;;;34.28;17.85;;;2.90;99.90;;;;;;5093689;28;20194;-52
2022/12/12 10:42:57;;;;;;;34.65;17.90;;;2.70;99.90;;;;;;5101632;28;20020;-51
2022/12/12 10:45:47;;;;;;;37.85;20.25;;;2.50;99.90;;;;;;5113014;28;20051;-47
2022/12/12 10:48:13;;;;;;;32.53;18.63;;;2.40;99.90;;;;;;5112517;28;20092;-49
2022/12/12 10:51:03;;;;;;;40.83;21.38;;;2.40;99.90;;;;;;5113472;28;20102;-52
2022/12/12 10:53:31;;;;;;;39.63;20.75;;;2.30;99.90;;;;;;5112318;28;20110;-53
2022/12/12 10:56:31;;;;;;;35.10;20.80;;;2.30;99.90;;;;;;5114269;28;20039;-47
2022/12/12 10:59:00;;;;;;;34.05;20.02;;;2.50;99.90;;;;;;5031109;28;20033;-46
2022/12/12 11:01:34;;;;;;;32.78;18.45;;;2.50;99.90;;;;;;5098650;27;20041;-48
2022/12/12 11:04:00;;;;;;;42.33;19.48;;;2.40;99.90;;;;;;5113474;28;20019;-45
2022/12/12 11:06:31;;;;;;;35.00;19.35;;;2.50;99.90;;;;;;5113931;28;20019;-55
2022/12/12 11:09:08;;;;;;;33.83;18.77;;;2.50;99.90;;;;;;5114000;28;20115;-51
2022/12/12 11:11:34;;;;;;;30.08;17.58;;;2.60;99.90;;;;;;5113493;28;20019;-51
2022/12/12 11:14:01;;;;;;;34.50;18.58;;;2.70;99.90;;;;;;5111311;28;20055;-46
2022/12/12 11:16:28;;;;;;;35.58;20.15;;;2.60;99.90;;;;;;5113904;28;20088;-51
2022/12/12 11:19:04;;;;;;;36.47;20.00;;;2.60;99.90;;;;;;5114085;28;20535;-45
2022/12/12 11:21:33;;;;;;;90.78;46.08;;;2.60;99.90;;;;;;5112923;28;20043;-47
2022/12/12 11:24:02;;;;;;;35.85;18.90;;;2.60;99.90;;;;;;5113408;28;20103;-46
2022/12/12 11:26:28;;;;;;;32.88;17.63;;;2.70;99.90;;;;;;5114620;28;20115;-48
2022/12/12 11:28:59;;;;;;;29.85;16.98;;;2.60;99.90;;;;;;5113647;28;20053;-46
2022/12/12 11:31:29;;;;;;;34.55;16.17;;;2.60;99.90;;;;;;5113543;28;20403;-49
2022/12/12 11:33:58;;;;;;;37.65;17.73;;;2.60;99.90;;;;;;5113056;28;20028;-49
2022/12/12 11:36:37;;;;;;;30.00;16.48;;;2.60;99.90;;;;;;5113550;28;20402;-51
2022/12/12 11:39:22;;;;;;;34.88;17.15;;;2.70;99.90;;;;;;5094030;28;20537;-47
2022/12/12 11:42:00;;;;;;;31.35;17.30;;;2.80;99.90;;;;;;5093404;28;20023;-46
2022/12/12 11:44:34;;;;;;;35.25;17.92;;;2.80;99.90;;;;;;5092282;28;20020;-46
2022/12/12 11:47:20;;;;;;;31.65;17.38;;;2.80;99.90;;;;;;5092188;28;20024;-48
2022/12/12 11:49:56;;;;;;;;;;;2.80;99.90;;;;;;5092054;28;20020;-48
2022/12/12 11:52:26;;;;;;;39.58;18.80;;;2.70;99.90;;;;;;5092408;28;20291;-48
2022/12/12 11:54:52;;;;;;;38.97;19.52;;;2.80;99.90;;;;;;5093216;28;20508;-47
2022/12/12 11:57:45;;;;;;;29.23;16.60;;;2.70;99.90;;;;;;5092933;28;20391;-49
2022/12/12 12:00:38;;;;;;;30.35;16.63;;;2.70;99.90;;;;;;5093170;28;20095;-46
2022/12/12 12:03:25;;;;;;;28.33;17.55;;;2.60;99.90;;;;;;5056101;28;20415;-48
2022/12/12 12:06:11;;;;;;;33.55;18.90;;;2.60;99.90;;;;;;5092312;28;20499;-47
2022/12/12 12:08:54;;;;;;;37.78;21.08;;;2.80;99.90;;;;;;5092772;28;20024;-50
2022/12/12 12:11:45;;;;;;;37.83;21.48;;;2.80;99.90;;;;;;5092756;28;20032;-49
2022/12/12 12:14:26;;;;;;;44.97;22.17;;;2.70;99.90;;;;;;5092621;28;20035;-47
2022/12/12 12:17:20;;;;;;;42.90;23.65;;;2.60;99.90;;;;;;5092842;28;20433;-46
2022/12/12 12:20:01;;;;;;;42.15;23.75;;;2.50;99.90;;;;;;5092531;28;20027;-46
2022/12/12 12:22:39;;;;;;;36.65;21.17;;;2.40;99.90;;;;;;5093783;28;20107;-46
2022/12/12 12:25:34;;;;;;;43.70;24.13;;;2.40;99.90;;;;;;5092571;28;20028;-45
2022/12/12 12:28:37;;;;;;;47.17;23.52;;;2.40;99.90;;;;;;5090381;28;20059;-47
2022/12/12 12:31:26;;;;;;;50.58;25.50;;;2.50;99.90;;;;;;5091626;28;20545;-46
2022/12/12 12:34:07;;;;;;;39.85;22.80;;;2.40;99.90;;;;;;5090437;28;20027;-48
2022/12/12 12:36:32;;;;;;;45.40;23.83;;;2.40;99.90;;;;;;5092475;28;20403;-49
2022/12/12 12:39:12;;;;;;;40.83;23.63;;;2.50;99.90;;;;;;5092541;28;20054;-49
2022/12/12 12:41:43;;;;;;;42.03;21.90;;;2.60;99.90;;;;;;5094068;28;20031;-45
2022/12/12 12:44:36;;;;;;;42.00;23.45;;;2.60;99.90;;;;;;5111716;28;20398;-47
2022/12/12 12:47:19;;;;;;;44.97;22.88;;;2.60;99.90;;;;;;5110985;28;20415;-45
2022/12/12 12:49:53;;;;;;;55.28;24.00;;;2.50;99.90;;;;;;5113000;28;20123;-51
2022/12/12 12:52:51;;;;;;;42.70;23.13;;;2.60;99.90;;;;;;5111795;28;20027;-49
2022/12/12 12:55:20;;;;;;;43.85;22.73;;;2.60;99.90;;;;;;5066775;28;20066;-45
2022/12/12 12:57:48;;;;;;;39.65;23.02;;;2.60;99.90;;;;;;5111930;28;20193;-46
2022/12/12 13:00:24;;;;;;;43.10;21.58;;;2.60;99.90;;;;;;5096797;28;20591;-48
2022/12/12 13:03:34;;;;;;;42.80;22.00;;;2.70;99.90;;;;;;5104621;28;20566;-44
2022/12/12 13:06:07;;;;;;;39.85;20.33;;;2.80;99.90;;;;;;5029128;28;20033;-46
2022/12/12 13:08:48;;;;;;;44.63;23.13;;;2.70;99.90;;;;;;5028314;28;20018;-47
2022/12/12 13:11:37;;;;;;;42.45;22.75;;;2.70;99.90;;;;;;5079635;28;20031;-47
2022/12/12 13:14:20;;;;;;;36.92;21.20;;;2.80;99.90;;;;;;5112133;28;20011;-53
2022/12/12 13:16:46;;;;;;;37.42;22.65;;;2.80;99.90;;;;;;5112437;28;20364;-46
2022/12/12 13:19:23;;;;;;;46.15;20.52;;;2.80;99.90;;;;;;5112382;28;20392;-49
2022/12/12 13:21:57;;;;;;;37.08;20.30;;;2.80;99.90;;;;;;5110986;28;20080;-45
2022/12/12 13:24:45;;;;;;;42.45;21.13;;;2.80;99.90;;;;;;5112769;28;20156;-46
2022/12/12 13:27:22;;;;;;;32.72;19.08;;;2.90;99.90;;;;;;5112065;28;20043;-45
2022/12/12 13:30:03;;;;;;;37.28;20.27;;;2.80;99.90;;;;;;5112251;28;20099;-49
2022/12/12 13:33:06;;;;;;;40.15;21.35;;;2.70;99.90;;;;;;5109783;28;20055;-45